Black Hawk, Colorado
Current Conditions -  °F | °C
As of 7:30 PM on Friday 24 Oct 2014 (Local Time) from K0CO Reporting Station
Clear Clear  
Wind Chill: 29°   Ceiling: Unl
Heat Index: 37°   Visibility: 10mi
Dew Point: 34°   Wind: 15mph
Humidity: 87%   Direction: 280°W
Pressure: 30.67"   Gusts: 21mph
Location:  39.8°N, 105.49°W
Report Text: K0CO 250130Z AUTO 28013G18KT 10SM CLR 03/01 A3067 RMK AO2
Loading
Personal Weather Stations






























Interactive Weather Map
Tropical Storm Tracking
New forecast layout! Learn more

10-Day Weather Forecast

Advertisements
Track Severe Weather on mobile